Temp: 18.6°C   Baro: 1017.6mb
  Wind: 0.0mph   Dir: W (274°)
  Rain: 0.2mm (0.0mm/hr)
  Solar: 0W/m2  Hum: 84%
 
Bath Spa Weather Station Historical Data
Daily Summary for July 13, 2019 Units:  English    Metric   Both
Daily Weekly Monthly Yearly Custom
  High: Low: Average:
Temperature: 67.6 °F 48.4 °F 57.9 °F
Dew Point: 53.5 °F 46.8 °F 49.7 °F
Humidity: 95% 50.9% 76%
Wind Speed: 9.7mph 0mph 2.9mph
Wind Gust: 17mph - -
Wind- - West
Pressure: 30.07 in 30.02 in -
Precipitation: 0.04 in    
Historical Graphs
 
 
Tabular Data for July 13, 2019
Time Temperature Dew Point Pressure Wind Wind Speed Wind Gust Humidity Rainfall Rate (Hourly) solar
00:04 51.7 °F 49.2 °F 30.06 in WNW 0.1 mph 1 mph 91% 0.02 in 0 W/m2
00:09 51.5 °F 49 °F 30.06 in WNW 0.2 mph 2 mph 91% 0.01 in 0 W/m2
00:14 51.3 °F 48.8 °F 30.06 in Calm   1 mph 91% 0.01 in 0 W/m2
00:19 51.3 °F 48.7 °F 30.06 in WNW 0.1 mph 1 mph 91% 0.01 in 0 W/m2
00:24 51.3 °F 48.7 °F 30.06 in WNW 0.5 mph 2 mph 91% 0.01 in 0 W/m2
00:29 51.3 °F 48.7 °F 30.06 in WNW 0.4 mph 2 mph 91% 0.01 in 0 W/m2
00:34 51.3 °F 49 °F 30.06 in WNW 0.9 mph 3 mph 91.7% 0.01 in 0 W/m2
00:39 51.3 °F 49.1 °F 30.06 in WNW 0.6 mph 3 mph 92% 0.01 in 0 W/m2
00:44 51.4 °F 49.2 °F 30.06 in WNW 0.2 mph 2 mph 92% 0.01 in 0 W/m2
00:49 51.4 °F 49.3 °F 30.06 in WNW 0.1 mph 2 mph 92% 0.01 in 0 W/m2
00:54 51.4 °F 49.3 °F 30.06 in Calm   2 mph 92% 0.02 in 0 W/m2
00:59 51.6 °F 49.5 °F 30.05 in West 0.3 mph 2 mph 92% 0.03 in 0 W/m2
01:04 51.6 °F 49.5 °F 30.05 in WNW 3.5 mph 6 mph 92% 0.03 in 0 W/m2
01:09 51.5 °F 49.4 °F 30.05 in WNW 1.8 mph 6 mph 92% 0.03 in 0 W/m2
01:14 51.4 °F 49.3 °F 30.05 in WNW 2.1 mph 4 mph 92% 0.03 in 0 W/m2
01:19 51.3 °F 49.2 °F 30.05 in WNW 1.5 mph 5 mph 92% 0.03 in 0 W/m2
01:24 51.3 °F 49.1 °F 30.05 in WNW 0.5 mph 3 mph 92% 0.03 in 0 W/m2
01:29 51.3 °F 49.1 °F 30.05 in Calm   3 mph 92% 0.03 in 0 W/m2
01:34 51.3 °F 49.2 °F 30.05 in Calm   1 mph 92% 0.03 in 0 W/m2
01:39 51.3 °F 49.1 °F 30.05 in WNW 0.2 mph 1 mph 92% 0.03 in 0 W/m2
01:44 51.3 °F 49.1 °F 30.05 in Calm   1 mph 92% 0.03 in 0 W/m2
01:49 51.3 °F 49.1 °F 30.05 in Calm   1 mph 92.2% 0.03 in 0 W/m2
01:54 51 °F 49 °F 30.05 in WNW 0.1 mph 1 mph 93% 0.02 in 0 W/m2
01:59 51 °F 49 °F 30.05 in WNW 0.9 mph 2 mph 93% 0.01 in 0 W/m2
02:04 51.1 °F 49.1 °F 30.05 in WNW 0.9 mph 2 mph 93% 0.00 in 0 W/m2
02:09 51 °F 49 °F 30.05 in WNW 0.1 mph 1 mph 93% 0.00 in 0 W/m2
02:14 50.9 °F 48.9 °F 30.04 in Calm     93% 0.00 in 0 W/m2
02:19 50.9 °F 48.9 °F 30.04 in Calm     93% 0.00 in 0 W/m2
02:24 50.8 °F 48.8 °F 30.04 in Calm     93% 0.00 in 0 W/m2
02:29 50.7 °F 48.7 °F 30.04 in Calm     93% 0.00 in 0 W/m2
02:34 50.6 °F 48.7 °F 30.04 in Calm     93% 0.00 in 0 W/m2
02:39 50.5 °F 48.6 °F 30.04 in Calm     93% 0.00 in 0 W/m2
02:44 50.5 °F 48.6 °F 30.04 in Calm     93% 0.00 in 0 W/m2
02:49 50.4 °F 48.4 °F 30.04 in Calm     93% 0.00 in 0 W/m2
02:54 50.1 °F 48.1 °F 30.04 in Calm     93% 0.00 in 0 W/m2
02:59 49.9 °F 47.9 °F 30.04 in Calm     93% 0.00 in 0 W/m2
03:04 49.8 °F 47.8 °F 30.04 in WNW 0.8 mph 2 mph 93% 0.00 in 0 W/m2
03:09 49.7 °F 47.8 °F 30.04 in WNW 0.8 mph 4 mph 93% 0.00 in 0 W/m2
03:14 49.6 °F 47.7 °F 30.04 in Calm   1 mph 93% 0.00 in 0 W/m2
03:19 49.5 °F 47.5 °F 30.04 in WNW 0.2 mph 1 mph 93% 0.00 in 0 W/m2
03:24 49.4 °F 47.4 °F 30.04 in WNW 0.6 mph 2 mph 93% 0.00 in 0 W/m2
03:29 49.1 °F 47.1 °F 30.04 in WNW 0.3 mph 2 mph 93% 0.00 in 0 W/m2
03:34 49.1 °F 47.4 °F 30.04 in WNW 0.1 mph 2 mph 93.8% 0.00 in 0 W/m2
03:39 49.1 °F 47.5 °F 30.05 in WNW 0.1 mph 1 mph 94% 0.00 in 0 W/m2
03:44 49.1 °F 47.5 °F 30.05 in Calm   1 mph 94% 0.00 in 0 W/m2
03:49 49 °F 47.3 °F 30.04 in Calm   1 mph 93.7% 0.00 in 0 W/m2
03:54 48.9 °F 47.1 °F 30.04 in Calm     93.4% 0.00 in 0 W/m2
03:59 48.9 °F 47.3 °F 30.04 in Calm     94% 0.00 in 0 W/m2
04:04 48.8 °F 47.2 °F 30.04 in Calm     94% 0.00 in 0 W/m2
04:09 48.7 °F 47 °F 30.04 in Calm     94% 0.00 in 0 W/m2
04:14 48.6 °F 46.9 °F 30.04 in Calm     94% 0.00 in 0 W/m2
04:19 48.5 °F 46.9 °F 30.04 in Calm     94% 0.00 in 0 W/m2
04:24 48.4 °F 46.8 °F 30.04 in Calm     94% 0.00 in 0 W/m2
04:29 48.4 °F 46.8 °F 30.04 in WNW 0.1 mph 1 mph 94% 0.00 in 0 W/m2
04:34 48.4 °F 46.8 °F 30.04 in Calm     94% 0.00 in 0 W/m2
04:39 48.5 °F 46.8 °F 30.04 in Calm     94% 0.00 in 0 W/m2
04:44 48.5 °F 46.9 °F 30.05 in Calm     94% 0.00 in 0 W/m2
04:49 48.6 °F 46.9 °F 30.05 in Calm     94% 0.00 in 0 W/m2
04:54 48.6 °F 46.9 °F 30.04 in Calm     94% 0.00 in 0 W/m2
04:59 48.6 °F 46.9 °F 30.04 in Calm     94% 0.00 in 0 W/m2
05:04 48.6 °F 46.9 °F 30.04 in Calm     94% 0.00 in 0 W/m2
05:09 48.7 °F 47.1 °F 30.04 in Calm     94% 0.00 in 0 W/m2
05:14 48.9 °F 47.3 °F 30.04 in Calm     94% 0.00 in 0 W/m2
05:19 48.9 °F 47.3 °F 30.04 in Calm     94% 0.00 in 0 W/m2
05:24 49 °F 47.4 °F 30.04 in Calm     94% 0.00 in 0 W/m2
05:29 49.1 °F 47.5 °F 30.04 in Calm     94% 0.00 in 0 W/m2
05:34 49.1 °F 47.5 °F 30.04 in Calm     94% 0.00 in 0 W/m2
05:39 49.1 °F 47.5 °F 30.04 in Calm     94% 0.00 in 0 W/m2
05:44 49.2 °F 47.6 °F 30.05 in Calm     94% 0.00 in 0 W/m2
05:49 49.3 °F 47.7 °F 30.04 in Calm     94% 0.00 in 0 W/m2
05:54 49.3 °F 47.7 °F 30.05 in Calm     94% 0.00 in 0 W/m2
05:59 49.1 °F 47.5 °F 30.05 in Calm     94% 0.00 in 5 W/m2
06:04 49.1 °F 47.5 °F 30.05 in Calm     94% 0.01 in 9 W/m2
06:09 49.1 °F 47.5 °F 30.05 in Calm     94% 0.01 in 12 W/m2
06:14 49 °F 47.4 °F 30.06 in Calm     94% 0.01 in 16 W/m2
06:19 48.9 °F 47.3 °F 30.06 in Calm     94% 0.01 in 21 W/m2
06:24 48.9 °F 47.3 °F 30.06 in Calm     94% 0.01 in 23 W/m2
06:29 49 °F 47.4 °F 30.06 in Calm     94% 0.01 in 25 W/m2
06:34 49.1 °F 47.5 °F 30.05 in Calm     94% 0.01 in 26 W/m2
06:39 49.4 °F 47.9 °F 30.05 in Calm     94.8% 0.01 in 30 W/m2
06:44 49.6 °F 48.1 °F 30.06 in Calm     95% 0.01 in 33 W/m2
06:49 49.5 °F 48.1 °F 30.06 in Calm     95% 0.01 in 46 W/m2
06:54 49.6 °F 48.1 °F 30.06 in Calm     95% 0.01 in 49 W/m2
06:59 49.6 °F 48.2 °F 30.06 in Calm     95% 0.01 in 62 W/m2
07:04 49.7 °F 48.3 °F 30.05 in Calm     95% 0.01 in 77 W/m2
07:09 49.8 °F 48.4 °F 30.05 in Calm     95% 0.00 in 77 W/m2
07:14 50.1 °F 48.6 °F 30.06 in Calm     95% 0.00 in 72 W/m2
07:19 50.3 °F 48.8 °F 30.06 in Calm     95% 0.00 in 77 W/m2
07:24 50.4 °F 48.9 °F 30.06 in Calm     95% 0.00 in 102 W/m2
07:29 50.6 °F 49.2 °F 30.06 in Calm     95% 0.00 in 98 W/m2
07:34 50.8 °F 49.4 °F 30.06 in Calm     95% 0.00 in 98 W/m2
07:39 50.9 °F 49.5 °F 30.06 in Calm     95% 0.00 in 91 W/m2
07:44 51.2 °F 49.7 °F 30.06 in WNW 0.1 mph 2 mph 95% 0.00 in 125 W/m2
07:49 51.5 °F 50.1 °F 30.06 in WNW 0.3 mph 2 mph 95% 0.00 in 142 W/m2
07:54 51.8 °F 50.4 °F 30.07 in WNW 0.9 mph 3 mph 95% 0.00 in 169 W/m2
07:59 52.2 °F 50.7 °F 30.07 in WNW 0.1 mph 2 mph 95% 0.00 in 218 W/m2
08:04 52.2 °F 50.7 °F 30.07 in WNW 0.3 mph 2 mph 95% 0.00 in 274 W/m2
08:09 52.5 °F 51 °F 30.07 in WNW 0.2 mph 2 mph 95% 0.00 in 278 W/m2
08:14 53.1 °F 51.6 °F 30.07 in WNW 0.4 mph 2 mph 95% 0.00 in 236 W/m2
08:19 53.1 °F 51.7 °F 30.07 in Calm   2 mph 95% 0.00 in 253 W/m2
08:24 53.3 °F 51.9 °F 30.07 in Calm     95% 0.00 in 141 W/m2
08:29 53.5 °F 52.1 °F 30.07 in Calm     95% 0.00 in 167 W/m2
08:34 53.5 °F 52.1 °F 30.07 in Calm     95% 0.00 in 230 W/m2
08:39 53.8 °F 52.3 °F 30.07 in Calm     95% 0.00 in 162 W/m2
08:44 53.9 °F 52.3 °F 30.07 in Calm     94% 0.00 in 214 W/m2
08:49 54.1 °F 52.5 °F 30.07 in Calm     94% 0.00 in 320 W/m2
08:54 54.7 °F 53.1 °F 30.07 in Calm     94% 0.00 in 339 W/m2
08:59 55.2 °F 53.5 °F 30.07 in WNW 0.4 mph 2 mph 93.7% 0.00 in 352 W/m2
09:04 55.4 °F 53.4 °F 30.07 in WNW 1.5 mph 4 mph 92.8% 0.00 in 367 W/m2
09:09 55.7 °F 53.3 °F 30.07 in WNW 1.4 mph 4 mph 91.7% 0.00 in 383 W/m2
09:14 56 °F 53 °F 30.07 in WNW 1.1 mph 4 mph 89.5% 0.00 in 397 W/m2
09:19 56.7 °F 53 °F 30.07 in WNW 2.1 mph 4 mph 87.3% 0.00 in 413 W/m2
09:24 57 °F 53 °F 30.07 in WNW 1.9 mph 5 mph 86.2% 0.00 in 425 W/m2
09:29 57.2 °F 52.5 °F 30.07 in NW 3.2 mph 7 mph 84.2% 0.00 in 438 W/m2
09:34 57.4 °F 51.8 °F 30.07 in NW 2.8 mph 7 mph 81.6% 0.00 in 452 W/m2
09:39 57.8 °F 52 °F 30.07 in NW 1.3 mph 5 mph 80.8% 0.00 in 464 W/m2
09:44 58.5 °F 52 °F 30.07 in West 3.2 mph 7 mph 78.9% 0.00 in 478 W/m2
09:49 58.7 °F 51.6 °F 30.07 in WSW 3.6 mph 6 mph 77.4% 0.00 in 490 W/m2
09:54 58.5 °F 51.2 °F 30.07 in WNW 4.4 mph 8 mph 76.6% 0.00 in 504 W/m2
09:59 58.7 °F 51.1 °F 30.07 in West 2.1 mph 6 mph 76% 0.00 in 515 W/m2
10:04 59.7 °F 52.1 °F 30.07 in WNW 1.7 mph 4 mph 75.8% 0.00 in 540 W/m2
10:09 59.8 °F 51.5 °F 30.07 in West 4.9 mph 9 mph 73.9% 0.00 in 591 W/m2
10:14 59.6 °F 50.7 °F 30.07 in WSW 4 mph 8 mph 72.1% 0.00 in 603 W/m2
10:19 59.9 °F 51 °F 30.07 in West 2.4 mph 9 mph 72.4% 0.00 in 601 W/m2
10:24 60.4 °F 51.6 °F 30.07 in West 3.3 mph 7 mph 72.7% 0.00 in 645 W/m2
10:29 60.7 °F 51.4 °F 30.07 in WNW 3.4 mph 10 mph 71.3% 0.00 in 675 W/m2
10:34 60.6 °F 50.7 °F 30.07 in WNW 4.6 mph 10 mph 70.1% 0.00 in 675 W/m2
10:39 60.6 °F 50.6 °F 30.07 in West 4.3 mph 9 mph 69.7% 0.00 in 650 W/m2
10:44 60.5 °F 50.3 °F 30.07 in West 4.8 mph 9 mph 68.8% 0.00 in 666 W/m2
10:49 60.7 °F 50.6 °F 30.07 in WNW 6.7 mph 11 mph 69.4% 0.00 in 663 W/m2
10:54 60.5 °F 49.9 °F 30.07 in WNW 4.1 mph 11 mph 68% 0.00 in 700 W/m2
10:59 60.7 °F 49.6 °F 30.07 in West 6.3 mph 10 mph 66.7% 0.00 in 700 W/m2
11:04 60.4 °F 49.2 °F 30.07 in West 5.8 mph 10 mph 66.3% 0.00 in 707 W/m2
11:09 61 °F 49.9 °F 30.07 in West 4 mph 10 mph 66.8% 0.00 in 737 W/m2
11:14 61.5 °F 50.1 °F 30.07 in WNW 3.7 mph 8 mph 66.1% 0.00 in 779 W/m2
11:19 61.9 °F 50.2 °F 30.07 in WNW 5.8 mph 11 mph 65.4% 0.00 in 793 W/m2
11:24 61.3 °F 49.4 °F 30.07 in WNW 6 mph 11 mph 65.1% 0.00 in 691 W/m2
11:29 61.2 °F 48.8 °F 30.07 in West 7.6 mph 12 mph 64% 0.00 in 708 W/m2
11:34 61.8 °F 49.7 °F 30.07 in WNW 4.3 mph 12 mph 64.4% 0.00 in 763 W/m2
11:39 62.2 °F 50.4 °F 30.07 in WNW 6.9 mph 12 mph 65.2% 0.00 in 763 W/m2
11:44 61.5 °F 50.1 °F 30.07 in NW 6.2 mph 12 mph 66.2% 0.00 in 740 W/m2
11:49 62 °F 50.9 °F 30.07 in NW 6.3 mph 10 mph 67% 0.00 in 740 W/m2
11:54 62 °F 50.4 °F 30.07 in NW 5.8 mph 14 mph 65.9% 0.00 in 752 W/m2
11:59 62.7 °F 50.9 °F 30.07 in NW 4 mph 8 mph 65.3% 0.00 in 759 W/m2
12:04 62.8 °F 50.8 °F 30.06 in NW 5.1 mph 10 mph 64.9% 0.00 in 777 W/m2
12:09 62.4 °F 50.6 °F 30.06 in WNW 5 mph 10 mph 65.2% 0.00 in 188 W/m2
12:14 62 °F 49.8 °F 30.06 in WNW 8.3 mph 12 mph 64.3% 0.00 in 795 W/m2
12:19 62.2 °F 50.1 °F 30.06 in WNW 6.8 mph 13 mph 64.5% 0.00 in 824 W/m2
12:24 62.2 °F 50.5 °F 30.06 in WNW 3.6 mph 9 mph 65.7% 0.00 in 227 W/m2
12:29 62.2 °F 50.4 °F 30.06 in NW 4.3 mph 10 mph 65% 0.00 in 837 W/m2
12:34 62.5 °F 50.1 °F 30.06 in NW 5.4 mph 10 mph 64% 0.00 in 837 W/m2
12:39 62.7 °F 50.1 °F 30.06 in WNW 3.7 mph 9 mph 63.7% 0.00 in 823 W/m2
12:44 63.1 °F 50.3 °F 30.06 in NW 6.3 mph 12 mph 63.1% 0.00 in 882 W/m2
12:49 63.1 °F 50.3 °F 30.06 in WNW 4.8 mph 10 mph 63.3% 0.00 in 882 W/m2
12:54 63.3 °F 51 °F 30.06 in WNW 4.4 mph 9 mph 64.4% 0.00 in 889 W/m2
12:59 64.1 °F 50.9 °F 30.06 in WNW 8.1 mph 13 mph 62.2% 0.00 in 884 W/m2
13:04 63.6 °F 50.4 °F 30.06 in NW 5.4 mph 12 mph 62% 0.00 in 882 W/m2
13:09 64.3 °F 51.3 °F 30.06 in WNW 5.5 mph 13 mph 62.7% 0.00 in 932 W/m2
13:14 64.9 °F 51.5 °F 30.05 in WNW 4.9 mph 11 mph 62% 0.00 in 932 W/m2
13:19 65.2 °F 51.7 °F 30.05 in West 6.1 mph 10 mph 61.8% 0.00 in 875 W/m2
13:24 65.2 °F 50.8 °F 30.05 in West 7.4 mph 12 mph 59.7% 0.00 in 809 W/m2
13:29 65.2 °F 50.7 °F 30.05 in WSW 7.7 mph 14 mph 59.3% 0.00 in 814 W/m2
13:34 65.1 °F 50.3 °F 30.05 in SW 7.1 mph 12 mph 58.9% 0.00 in 837 W/m2
13:39 65.3 °F 50.4 °F 30.05 in West 9.6 mph 15 mph 58.6% 0.00 in 849 W/m2
13:44 65.7 °F 51 °F 30.05 in West 7.3 mph 15 mph 59.1% 0.00 in 823 W/m2
13:49 65.7 °F 51.5 °F 30.05 in WSW 5.2 mph 15 mph 60.1% 0.00 in 863 W/m2
13:54 66.1 °F 51.6 °F 30.05 in WSW 6.2 mph 10 mph 59.6% 0.00 in 863 W/m2
13:59 65.8 °F 51.8 °F 30.05 in WNW 6.6 mph 14 mph 60.5% 0.00 in 875 W/m2
14:04 65.8 °F 51.4 °F 30.05 in West 3.8 mph 9 mph 59.8% 0.00 in 874 W/m2
14:09 66.3 °F 51.6 °F 30.05 in WNW 9.5 mph 17 mph 58.9% 0.00 in 817 W/m2
14:14 65.5 °F 51 °F 30.05 in West 8.4 mph 17 mph 59.5% 0.00 in 812 W/m2
14:19 65.2 °F 50.8 °F 30.05 in West 5 mph 11 mph 59.7% 0.00 in 814 W/m2
14:24 65.8 °F 51.7 °F 30.05 in West 6.5 mph 12 mph 60.3% 0.00 in 851 W/m2
14:29 66.1 °F 52.1 °F 30.04 in WSW 3.6 mph 10 mph 60.4% 0.00 in 902 W/m2
14:34 67 °F 52.8 °F 30.05 in West 6.4 mph 15 mph 60.4% 0.00 in 900 W/m2
14:39 66.6 °F 51.6 °F 30.04 in WSW 7.3 mph 15 mph 58.8% 0.00 in 868 W/m2
14:44 66.8 °F 51.4 °F 30.04 in WSW 7 mph 14 mph 57.8% 0.00 in 863 W/m2
14:49 67.4 °F 51 °F 30.04 in WSW 7.7 mph 12 mph 55.6% 0.00 in 807 W/m2
14:54 66.6 °F 50.1 °F 30.04 in West 8.2 mph 16 mph 55.3% 0.00 in 782 W/m2
14:59 66.8 °F 50.9 °F 30.04 in WSW 4.2 mph 12 mph 56.7% 0.00 in 759 W/m2
15:04 66.9 °F 50.3 °F 30.04 in WSW 7.7 mph 14 mph 55.3% 0.00 in 759 W/m2
15:09 67.1 °F 50.2 °F 30.04 in WSW 7.2 mph 13 mph 54.5% 0.00 in 737 W/m2
15:14 67.1 °F 49.5 °F 30.04 in West 8 mph 14 mph 53.1% 0.00 in 729 W/m2
15:19 66.8 °F 48.9 °F 30.04 in West 6.8 mph 13 mph 52.3% 0.00 in 738 W/m2
15:24 66.8 °F 48.6 °F 30.04 in WNW 8.6 mph 17 mph 52% 0.00 in 773 W/m2
15:29 66.8 °F 48.6 °F 30.04 in WNW 7.6 mph 14 mph 52% 0.00 in 770 W/m2
15:34 66.9 °F 48.8 °F 30.04 in West 7.8 mph 14 mph 52.2% 0.00 in 754 W/m2
15:39 66.8 °F 49.7 °F 30.04 in West 6.7 mph 16 mph 54.3% 0.00 in 752 W/m2
15:44 66.9 °F 48.6 °F 30.04 in West 7.1 mph 16 mph 51.7% 0.00 in 752 W/m2
15:49 66.6 °F 49.2 °F 30.04 in WNW 6.4 mph 12 mph 53.4% 0.00 in 715 W/m2
15:54 66.5 °F 49.5 °F 30.04 in West 7.1 mph 15 mph 54.4% 0.00 in 585 W/m2
15:59 66.7 °F 48 °F 30.04 in West 9.7 mph 17 mph 51% 0.00 in 450 W/m2
16:04 66.2 °F 47.4 °F 30.04 in West 8.2 mph 14 mph 50.9% 0.00 in 441 W/m2
16:09 66.3 °F 48.4 °F 30.04 in WNW 7.2 mph 15 mph 52.5% 0.00 in 722 W/m2
16:14 66.6 °F 48.6 °F 30.04 in WNW 6.6 mph 12 mph 52.3% 0.00 in 744 W/m2
16:19 66.8 °F 49.3 °F 30.04 in WNW 6.7 mph 13 mph 53.3% 0.00 in 733 W/m2
16:24 66.3 °F 48.8 °F 30.04 in West 7.9 mph 15 mph 53.2% 0.00 in 387 W/m2
16:29 65.8 °F 48.5 °F 30.04 in WNW 6.7 mph 14 mph 53.7% 0.00 in 371 W/m2
16:34 66 °F 48.6 °F 30.03 in NW 5.2 mph 11 mph 53.5% 0.00 in 603 W/m2
16:39 66.7 °F 49.3 °F 30.03 in West 5.9 mph 11 mph 53.5% 0.00 in 578 W/m2
16:44 67.1 °F 49.3 °F 30.03 in West 6.8 mph 11 mph 52.7% 0.00 in 563 W/m2
16:49 67.5 °F 49.6 °F 30.03 in WNW 5 mph 11 mph 52.7% 0.00 in 555 W/m2
16:54 67.6 °F 49.1 °F 30.03 in West 6.3 mph 12 mph 51.4% 0.00 in 545 W/m2
16:59 67.6 °F 49.6 °F 30.03 in West 6.9 mph 13 mph 52.5% 0.00 in 522 W/m2
17:04 67.3 °F 49.5 °F 30.03 in West 7.7 mph 14 mph 52.9% 0.00 in 517 W/m2
17:09 66.7 °F 49.6 °F 30.03 in WNW 8.7 mph 15 mph 53.9% 0.00 in 503 W/m2
17:14 66.3 °F 49.3 °F 30.03 in WNW 7.6 mph 15 mph 54.3% 0.00 in 503 W/m2
17:19 66.2 °F 48.3 °F 30.03 in WNW 8.1 mph 14 mph 52.5% 0.00 in 487 W/m2
17:24 66.1 °F 47.4 °F 30.03 in NW 7.1 mph 14 mph 51% 0.00 in 478 W/m2
17:29 66 °F 47.4 °F 30.03 in WNW 8.4 mph 14 mph 51.1% 0.00 in 462 W/m2
17:34 66.1 °F 47.4 °F 30.03 in WNW 7.6 mph 14 mph 50.9% 0.00 in 446 W/m2
17:39 66.3 °F 47.9 °F 30.03 in WNW 7.7 mph 13 mph 51.7% 0.00 in 429 W/m2
17:44 66.1 °F 47.7 °F 30.03 in WNW 7.9 mph 15 mph 51.5% 0.00 in 424 W/m2
17:49 66.1 °F 48 °F 30.03 in West 6.5 mph 13 mph 52.3% 0.00 in 415 W/m2
17:54 66.6 °F 48.4 °F 30.03 in WNW 5 mph 13 mph 52.1% 0.00 in 394 W/m2
17:59 66.7 °F 48.6 °F 30.03 in West 4.9 mph 13 mph 51.9% 0.00 in 392 W/m2
18:04 67 °F 49.1 °F 30.03 in West 6.2 mph 12 mph 52.6% 0.00 in 350 W/m2
18:09 66.6 °F 49.6 °F 30.03 in West 6.5 mph 13 mph 54.3% 0.00 in 357 W/m2
18:14 66.2 °F 49.8 °F 30.03 in WNW 7.2 mph 13 mph 55.3% 0.00 in 334 W/m2
18:19 66 °F 49.8 °F 30.03 in WNW 5.2 mph 12 mph 56% 0.00 in 283 W/m2
18:24 66.1 °F 49.9 °F 30.03 in West 7.6 mph 13 mph 56% 0.00 in 269 W/m2
18:29 65.8 °F 49.8 °F 30.03 in WNW 6.9 mph 13 mph 56.3% 0.00 in 292 W/m2
18:34 65.8 °F 50 °F 30.03 in West 6 mph 11 mph 56.7% 0.00 in 250 W/m2
18:39 65.8 °F 50.8 °F 30.03 in West 6.5 mph 12 mph 58.4% 0.00 in 315 W/m2
18:44 65.8 °F 50.9 °F 30.03 in West 6.4 mph 13 mph 58.5% 0.00 in 294 W/m2
18:49 65.6 °F 50.7 °F 30.03 in West 6.8 mph 11 mph 58.6% 0.00 in 202 W/m2
18:54 64.9 °F 50.3 °F 30.04 in West 8.2 mph 13 mph 59% 0.00 in 169 W/m2
18:59 64.4 °F 50.4 °F 30.04 in West 6.2 mph 12 mph 60.3% 0.00 in 167 W/m2
19:04 64.6 °F 50.8 °F 30.04 in West 4.5 mph 9 mph 60.8% 0.00 in 169 W/m2
19:09 64.3 °F 50.1 °F 30.04 in WSW 6.5 mph 12 mph 60.1% 0.00 in 88 W/m2
19:14 63.8 °F 50.4 °F 30.04 in WSW 5.9 mph 12 mph 61.7% 0.00 in 62 W/m2
19:19 63.4 °F 50.3 °F 30.04 in WSW 5.5 mph 11 mph 62.5% 0.00 in 56 W/m2
19:24 63.2 °F 50.5 °F 30.04 in WSW 6 mph 11 mph 63% 0.00 in 60 W/m2
19:29 63.1 °F 50.3 °F 30.04 in West 5.4 mph 9 mph 63% 0.00 in 60 W/m2
19:34 63 °F 50.2 °F 30.04 in West 3.7 mph 7 mph 63% 0.00 in 65 W/m2
19:39 63 °F 50.4 °F 30.04 in WSW 3.1 mph 9 mph 63.6% 0.00 in 65 W/m2
19:44 62.9 °F 50.3 °F 30.04 in WSW 4.1 mph 9 mph 63.5% 0.00 in 49 W/m2
19:49 62.7 °F 50.3 °F 30.04 in West 3.1 mph 9 mph 64% 0.00 in 51 W/m2
19:54 62.5 °F 50.1 °F 30.04 in West 3.5 mph 9 mph 64% 0.00 in 46 W/m2
20:29 61.5 °F 50.9 °F 30.04 in WSW 2 mph 6 mph 68% 0.00 in 9 W/m2
20:34 61.3 °F 50.7 °F 30.04 in WSW 1.8 mph 4 mph 68% 0.00 in 7 W/m2
20:39 61.2 °F 50.7 °F 30.04 in Calm   3 mph 68.5% 0.00 in 5 W/m2
20:44 60.9 °F 50.6 °F 30.04 in WSW 1.8 mph 5 mph 69% 0.00 in 0 W/m2
20:49 60.5 °F 50.3 °F 30.04 in WSW 0.5 mph 5 mph 69% 0.00 in 0 W/m2
20:54 60.3 °F 50.4 °F 30.04 in WSW 0.1 mph 2 mph 69.9% 0.00 in 0 W/m2
20:59 59.9 °F 50.4 °F 30.04 in WSW 0.8 mph 3 mph 70.6% 0.00 in 0 W/m2
21:04 59.7 °F 50.4 °F 30.04 in WSW 0.2 mph 3 mph 71% 0.00 in 0 W/m2
21:09 59.5 °F 50.3 °F 30.04 in WSW 0.8 mph 3 mph 71.5% 0.00 in 0 W/m2
21:14 59.3 °F 50.3 °F 30.04 in WSW 1 mph 3 mph 72% 0.00 in 0 W/m2
21:19 59 °F 50.1 °F 30.04 in WSW 0.9 mph 3 mph 72.4% 0.00 in 0 W/m2
21:24 58.7 °F 50.1 °F 30.04 in WSW 1 mph 3 mph 73% 0.00 in 0 W/m2
21:29 58.6 °F 50 °F 30.04 in WSW 1.1 mph 3 mph 73.2% 0.00 in 0 W/m2
21:34 58.5 °F 50.1 °F 30.04 in WSW 1.2 mph 3 mph 73.8% 0.00 in 0 W/m2
21:39 58.4 °F 50.1 °F 30.04 in WSW 0.8 mph 3 mph 74% 0.00 in 0 W/m2
21:44 58.3 °F 50 °F 30.04 in WSW 0.2 mph 2 mph 74% 0.00 in 0 W/m2
21:49 58.2 °F 50.2 °F 30.04 in WSW 0.5 mph 3 mph 74.7% 0.00 in 0 W/m2
21:54 58.1 °F 50.2 °F 30.04 in WSW 0.2 mph 3 mph 75% 0.00 in 0 W/m2
21:59 57.9 °F 50 °F 30.04 in Calm   1 mph 75% 0.00 in 0 W/m2
22:04 57.8 °F 50.1 °F 30.04 in Calm     75.5% 0.00 in 0 W/m2
22:08 57.7 °F 50.2 °F 30.04 in Calm     76% 0.00 in 0 W/m2
22:39 57.2 °F 51.1 °F 30.03 in Calm     80% 0.00 in 0 W/m2
22:44 57.1 °F 51 °F 30.03 in Calm     80% 0.00 in 0 W/m2
22:49 57 °F 51.3 °F 30.03 in Calm     81% 0.00 in 0 W/m2
22:54 57 °F 51.3 °F 30.03 in WSW 0.1 mph 1 mph 81% 0.00 in 0 W/m2
22:59 57 °F 51.5 °F 30.03 in Calm     81.8% 0.00 in 0 W/m2
23:04 57 °F 51.6 °F 30.03 in WSW 0.2 mph 2 mph 82% 0.00 in 0 W/m2
23:09 57 °F 51.6 °F 30.03 in WSW 0.1 mph 2 mph 82% 0.00 in 0 W/m2
23:14 57.2 °F 51.8 °F 30.03 in Calm     82% 0.00 in 0 W/m2
23:19 57.2 °F 51.9 °F 30.03 in Calm     82.4% 0.00 in 0 W/m2
23:24 57.2 °F 52.2 °F 30.03 in Calm     83% 0.00 in 0 W/m2
23:29 57.2 °F 52.2 °F 30.03 in Calm     83% 0.00 in 0 W/m2
23:34 57.1 °F 52.1 °F 30.03 in Calm     83% 0.00 in 0 W/m2
23:39 57 °F 52 °F 30.03 in Calm     83% 0.00 in 0 W/m2
23:44 57 °F 52 °F 30.03 in Calm     83% 0.00 in 0 W/m2
23:49 57 °F 52.2 °F 30.02 in Calm     83.9% 0.00 in 0 W/m2
23:54 57 °F 52.2 °F 30.02 in Calm     84% 0.00 in 0 W/m2
23:59 57 °F 52.2 °F 30.02 in Calm     84% 0.00 in 0 W/m2
Bath Spa Weather
Compliments of Weather Underground - 2 mb